LiveATC.Net - Listen to live air traffic control over the Internet!
Airport/ARTCC Code
Frequency Search
(e.g., 124.400, 128.75)
Site-wide search
 


Browse Feeds
Top 50 Feeds
Coverage Map
Bad Weather Areas

LiveATC FAQ
Offer LiveATC feed
Contact LiveATC.net
Press Inquiries

LiveATC on iPhone
LiveATC on Android

Windows Phone
Windows 8/10

LiveATC Mobile
(Mobile browser)

ATC Audio Archives
Interesting Recordings

LiveATC Forums

Home Page
About LiveATC.net
Make a Donation
Terms of Use
Privacy Policy

Canadian Air Freqs

AIRMETs/SIGMETs

FAA Airport Status
Nat'l Airspace Status
Arrival Demand Charts


Server Software By:
Icecast.org
Liquidsoap

Select an area of interest:
U.S. Feeds: Class B Airports | Class C Airports | Class D/Other Airports | ARTCC (Centers)
International Feeds: Canada | Europe | Oceania | Asia | South America | North/Central America | Africa
Misc Feeds: HF Feeds
Search by ICAO/IATA airport code:   (e.g., kbos, kjfk, lax, eham, etc.)


Currently Available Live Feeds: 2561
Status Updated: Wed Aug 05 2020 19:37:38 UTC


NOTICE

Unauthorized use prohibited. See LiveATC.net Terms of Service

North and Central America Airport Feeds

 

MDPP App/Dep (Archives)
Puerto Plata, Dominican Republic

Feed Status: UP
Listen in your browser - HTML5 player(in browser, HTML5)
Click here to listen with your own player(launches your MP3 player)

MDPP 051900Z 051900Z 09016KT 9999 FEW022 32/26 Q1015

MDPP Flight Activity (Flightaware)

Listeners: 0 out of 1312 total

Puerto Plata Approach/Departure: 119.000

MDPP Ground/Center (Archives)
Puerto Plata, Dominican Republic

Feed Status: UP
Listen in your browser - HTML5 player(in browser, HTML5)
Click here to listen with your own player(launches your MP3 player)

MDPP 051900Z 051900Z 09016KT 9999 FEW022 32/26 Q1015

MDPP Flight Activity (Flightaware)

Listeners: 0 out of 1312 total

Puerto Plata Ground: 121.900
Puerto Plata Tower: 118.000
Santo Domingo Center: 124.300

MDPP Ground/Tower/Center (Archives)
Puerto Plata, Dominican Republic

Feed Status: UP
Listen in your browser - HTML5 player(in browser, HTML5)
Click here to listen with your own player(launches your MP3 player)

MDPP 051900Z 051900Z 09016KT 9999 FEW022 32/26 Q1015

MDPP Flight Activity (Flightaware)

Listeners: 0 out of 1312 total

Puerto Plata Ground: 121.900
Puerto Plata Tower: 118.000
Santo Domingo Center: 124.300

MDPP Tower (Archives)
Puerto Plata, Dominican Republic

Feed Status: UP
Listen in your browser - HTML5 player(in browser, HTML5)
Click here to listen with your own player(launches your MP3 player)

MDPP 051900Z 051900Z 09016KT 9999 FEW022 32/26 Q1015

MDPP Flight Activity (Flightaware)

Listeners: 0 out of 1312 total

Puerto Plata Tower: 118.000

MMAN Tower
Monterrey, Mexico

Feed Status: DOWN
Offline since: 2020-02-14 03:08:22 UTC

MMAN 051840Z 10013KT 10SM BKN020 30/21 A3005 RMK 8/500

Monterrey Tower: 118.600

MMCU Twr/App (Archives)
Chihuahua, Mexico

Feed Status: UP
Listen in your browser - HTML5 player(in browser, HTML5)
Click here to listen with your own player(launches your MP3 player)

MMCU 051840Z 01005KT 10SM FEW030 34/07 A3013 RMK 8/100 TCU W

MMCU Flight Activity (Flightaware)

Listeners: 0 out of 1312 total

Chihuahua Approach: 121.000
Chihuahua Tower: 118.400

MMGL Twr/App (Archives)
Guadalajara, Mexico

Feed Status: UP
Listen in your browser - HTML5 player(in browser, HTML5)
Click here to listen with your own player(launches your MP3 player)

MMGL 051843Z 00000KT 5SM BKN020 26/15 A3020 RMK 8/100 HZY AC

MMGL Flight Activity (Flightaware)

Listeners: 5 out of 1312 total

Guadalajara Approach: 120.800
Guadalajara Tower: 118.100

MMHO App/Dep
Hermosillo, Mexico

Feed Status: DOWN
Offline since: 2019-11-27 01:26:40 UTC

MMHO 051841Z 15010KT 10SM SKC 40/19 A2989 RMK FRMG CB N HZY

Hermosillo Approach/Departure: 121.400

MMHO Tower
Hermosillo, Mexico

Feed Status: DOWN
Offline since: 2019-11-27 01:26:40 UTC

MMHO 051841Z 15010KT 10SM SKC 40/19 A2989 RMK FRMG CB N HZY

Hermosillo Tower: 118.700

MMLP Twr/App (Archives)
La Paz, Mexico

Feed Status: UP
Listen in your browser - HTML5 player(in browser, HTML5)
Click here to listen with your own player(launches your MP3 player)

MMLP 051842Z 15007KT 10SM SKC 36/11 A2983

MMLP Flight Activity (Flightaware)

Listeners: 0 out of 1312 total

La Paz Approach: 120.600
La Paz Tower: 118.100

MMMD App/Dep (Archives)
Merida, Mexico

Feed Status: UP
Listen in your browser - HTML5 player(in browser, HTML5)
Click here to listen with your own player(launches your MP3 player)

MMMD 051846Z 10006KT 7SM BKN025TCU 35/24 A2992 RMK 8/200 CI

MMMD Flight Activity (Flightaware)

Listeners: 0 out of 1312 total

Merida Approach: 121.200

MMMD Merida Center (Archives)
Merida, Mexico

Feed Status: UP
Listen in your browser - HTML5 player(in browser, HTML5)
Click here to listen with your own player(launches your MP3 player)

MMMD 051846Z 10006KT 7SM BKN025TCU 35/24 A2992 RMK 8/200 CI

MMMD Flight Activity (Flightaware)

Listeners: 1 out of 1312 total

Merida Center: 125.800
Merida Center: 123.750

MMMD Tower (Archives)
Merida, Mexico

Feed Status: UP
Listen in your browser - HTML5 player(in browser, HTML5)
Click here to listen with your own player(launches your MP3 player)

MMMD 051846Z 10006KT 7SM BKN025TCU 35/24 A2992 RMK 8/200 CI

MMMD Flight Activity (Flightaware)

Listeners: 0 out of 1312 total

Merida Tower: 118.300

MMMM Tower (Archives)
Morelia, Mexico

Feed Status: UP
Listen in your browser - HTML5 player(in browser, HTML5)
Click here to listen with your own player(launches your MP3 player)

MMMM 051840Z 00000KT 6SM BKN030TCU 25/15 A3026 RMK 8/200 HZY

MMMM Flight Activity (Flightaware)

Listeners: 0 out of 1312 total

Morelia Tower: 118.500

MMMX Approach (Archives)
Mexico City, Mexico

Feed Status: UP
Listen in your browser - HTML5 player(in browser, HTML5)
Click here to listen with your own player(launches your MP3 player)

MMMX 051845Z 08007KT 8SM SCT020 23/07 A3035 NOSIG RMK 8/200 HZY CI

MMMX Flight Activity (Flightaware)

Listeners: 2 out of 1312 total

Mexico City Approach: 121.200

MMMX Twr/App (Archives)
Mexico City, Mexico

Feed Status: UP
Listen in your browser - HTML5 player(in browser, HTML5)
Click here to listen with your own player(launches your MP3 player)

MMMX 051845Z 08007KT 8SM SCT020 23/07 A3035 NOSIG RMK 8/200 HZY CI

MMMX Flight Activity (Flightaware)

Listeners: 5 out of 1312 total

Mexico City Approach: 121.200
Mexico City Departure (East): 120.500
Mexico City Departure (West): 129.100
Mexico City Final Approach: 119.750
Mexico City Helicopters: 118.150
Mexico City Terminal: 129.600
Mexico City Tower: 118.550

MMMY Tower/Approach
Monterrey, Mexico

Feed Status: DOWN
Offline since: 2020-07-22 13:02:22 UTC

MMMY 051841Z 06011KT 12SM BKN030TCU 31/23 A2999 RMK 8/200

Monterrey Approach/Departure: 119.750
Monterrey Tower: 118.100

MMQT Tower/App
Queretaro, Mexico

Feed Status: DOWN
Offline since: 2020-01-27 20:28:06 UTC

MMQT 051845Z 15008KT 8SM BKN020 BKN100 24/14 A3034 RMK 8/130

Queretaro Approach: 127.200
Queretaro Tower: 118.950

MMSP Gnd/Twr/App/Center (Archives)
San Luis Potosi, Mexico

Feed Status: UP
Listen in your browser - HTML5 player(in browser, HTML5)
Click here to listen with your own player(launches your MP3 player)

MMSP 051847Z 04006KT 12SM BKN025 BKN230 25/09 A3028 RMK 8/208

MMSP Flight Activity (Flightaware)

Listeners: 3 out of 1312 total

AMX Ground Ops: 131.000
Mexico Center (North, Sector 6): 126.000
Mexico Center (Northwest, Sector 7): 123.900
Mexico Center (West, Sector 5): 125.100
Potosi Approach: 127.500
Potosi Tower: 118.900
TAO Ground Ops: 133.600

MMTC Twr/App/Center (Archives)
Torreon, Mexico

Feed Status: UP
Listen in your browser - HTML5 player(in browser, HTML5)
Click here to listen with your own player(launches your MP3 player)

MMTC 051843Z 00000KT 10SM FEW200 34/13 A3009 RMK 8/002 ISOL CU

MMTC Flight Activity (Flightaware)

Listeners: 2 out of 1312 total

Mazatlan Center: 124.200
Mazatlan Center: 124.400
Mazatlan Center: 128.000
Mexico Center: 123.900
Monterrey Center: 125.600
Monterrey Center: 125.425
Monterrey Center: 127.400
Torreon Approach: 119.500
Torreon Tower: 118.500

MMTJ Approach (Archives)
Tijuana, Mexico

Feed Status: UP
Listen in your browser - HTML5 player(in browser, HTML5)
Click here to listen with your own player(launches your MP3 player)

MMTJ 051845Z 28013KT 6SM SKC 23/16 A2999 RMK HZY ST 3RD QUAD

MMTJ Flight Activity (Flightaware)

Listeners: 0 out of 1312 total

Tijuana Approach: 120.300

MMTJ Twr/Ramp (Archives)
Tijuana, Mexico

Feed Status: UP
Listen in your browser - HTML5 player(in browser, HTML5)
Click here to listen with your own player(launches your MP3 player)

MMTJ 051845Z 28013KT 6SM SKC 23/16 A2999 RMK HZY ST 3RD QUAD

MMTJ Flight Activity (Flightaware)

Listeners: 0 out of 1312 total

Tijuana Ramp: 126.100
Tijuana Tower: 118.100

MUFH Havana FIR (App/Center) (Archives)
Havana, Cuba

Feed Status: UP
Listen in your browser - HTML5 player(in browser, HTML5)
Click here to listen with your own player(launches your MP3 player)

MUFH Flight Activity (Flightaware)

Listeners: 0 out of 1312 total

Hava Approach: 120.300
Havana Center: 120.250
Havana Center: 123.700
Havana Center: 124.550
Havana Center: 133.700
Havana Center: 135.100

TBPB Gnd/Twr/Radar/Center (Archives)
Bridgetown, Barbados

Feed Status: UP
Listen in your browser - HTML5 player(in browser, HTML5)
Click here to listen with your own player(launches your MP3 player)

TBPB 051900Z 10014KT 9999 SCT018 31/23 Q1014 NOSIG

TBPB Flight Activity (Flightaware)

Listeners: 3 out of 1312 total

Adams Approach/Departure: 129.350
Adams Approach/Departure: 128.850
Adams Ground: 121.900
Adams Tower: 118.700
Piarco Center: 123.700

TXKF Tower/Ground (Archives)
Hamilton, Bermuda

Feed Status: UP
Listen in your browser - HTML5 player(in browser, HTML5)
Click here to listen with your own player(launches your MP3 player)

TXKF 051855Z 13009KT 9999 VCSH FEW028 SCT076 30/22 Q1020

TXKF Flight Activity (Flightaware)

Listeners: 0 out of 1312 total

Bermuda CTAF: 122.800
Bermuda Ground/Clearance: 124.500
Bermuda Tower: 118.100

ZNY Bermuda Sector (Archives)
Hamilton, Bermuda

Feed Status: UP
Listen in your browser - HTML5 player(in browser, HTML5)
Click here to listen with your own player(launches your MP3 player)

TXKF 051855Z 13009KT 9999 VCSH FEW028 SCT076 30/22 Q1020

TXKF Flight Activity (Flightaware)

Listeners: 0 out of 1312 total

New York Approach (Bermuda Sector) : 119.100
New York Center (Bermuda Sector): 128.500

MHLC Gnd/Twr/Center (Archives)
La Ceiba, Honduras

Feed Status: UP
Listen in your browser - HTML5 player(in browser, HTML5)
Click here to listen with your own player(launches your MP3 player)

MHLC 051900Z 03010KT 9999 FEW030TCU FEW032CB 31/25 Q1012 A2989

MHLC Flight Activity (Flightaware)

Listeners: 1 out of 1312 total

CENAMER: 123.900
CENAMER: 124.300
Goloson Ground: 121.900
Goloson Tower: 118.500
La Ceiba Radio: 128.900

MHLM Gnd/Twr/App (Archives)
San Pedro Sula, Honduras

Feed Status: UP
Listen in your browser - HTML5 player(in browser, HTML5)
Click here to listen with your own player(launches your MP3 player)

MHLM 051901Z 05012KT 010V090 9999 TS SCT030CB SCT250 35/23 Q1010 A2983

MHLM Flight Activity (Flightaware)

Listeners: 1 out of 1312 total

La Mesa Ground: 121.900
La Mesa Tower: 118.200
San Pedro Sula Approach: 119.700

MHRO Gnd/Twr/App/Center
Roatan, Honduras

Feed Status: DOWN
Offline since: 2020-07-16 13:47:06 UTC

MHRO 051800Z 09010KT 9999 FEW020 31/25 Q1013 A2992

CENAMER (Center): 124.300
La Ceiba Radio: 128.900
Roatan Ground: 121.600
Roatan Tower: 118.100

MHTG ATIS (Archives)
Tegucigalpa, Honduras

Feed Status: UP
Listen in your browser - HTML5 player(in browser, HTML5)
Click here to listen with your own player(launches your MP3 player)

MHTG 051900Z 05004KT 9999 SCT030TCU SCT250 28/22 Q1018 A3006

MHTG Flight Activity (Flightaware)

Listeners: 0 out of 1312 total

Toncontin ATIS: 127.750

MHTG Gnd/Twr/App/Ctr/Ops (Archives)
Tegucigalpa, Honduras

Feed Status: UP
Listen in your browser - HTML5 player(in browser, HTML5)
Click here to listen with your own player(launches your MP3 player)

MHTG 051900Z 05004KT 9999 SCT030TCU SCT250 28/22 Q1018 A3006

MHTG Flight Activity (Flightaware)

Listeners: 1 out of 1312 total

American Airlines Ops: 130.700
ARINC ACARS: 131.550
Cenamer Center: 123.900
Cenamer Center: 124.300
Cenamer Center: 124.100
CMP Ops: 129.925
Continental Airlines Ops: 129.925
FAH Ground: 122.900
Taca Ops: 131.300
Taca Ops Sal: 130.300
Tecnologias Unidas: 133.000
Tegucigalpa RDO: 126.700
Toncontin Approach: 119.100
Toncontin Ground: 121.900
Toncontin Tower: 118.700

MROC Del/Gnd/Twr (Archives)
San Jose, Costa Rica

Feed Status: UP
Listen in your browser - HTML5 player(in browser, HTML5)
Click here to listen with your own player(launches your MP3 player)

MROC 051900Z 24011KT 9999 VCTS FEW020CB BKN040 25/22 A2999 BECMG TSRA

MROC Flight Activity (Flightaware)

Listeners: 0 out of 1312 total

Coco Clearance Delivery/Ground: 121.900
Coco Tower: 118.600

MROC Del/Gnd/Twr/App/Center/Misc (Archives)
San Jose, Costa Rica

Feed Status: UP
Listen in your browser - HTML5 player(in browser, HTML5)
Click here to listen with your own player(launches your MP3 player)

MROC 051900Z 24011KT 9999 VCTS FEW020CB BKN040 25/22 A2999 BECMG TSRA

MROC Flight Activity (Flightaware)

Listeners: 8 out of 1312 total

Central American Center (CENAMER Control): 124.100
Coco Center (Control over CR Airspace): 119.600
Coco Clearance Delivery: 121.300
Coco Ground: 121.900
Coco Terminal Control: 120.500
Coco Tower: 118.600
Coco UNICOM: 126.800
SYQ Ground: 121.700
SYQ Tower: 118.300

MSLP Gnd/Twr/App (Archives)
San Salvador, El Salvador

Feed Status: UP
Listen in your browser - HTML5 player(in browser, HTML5)
Click here to listen with your own player(launches your MP3 player)

MSLP 051850Z 18004KT 100V250 9999 SCT023 FEW033TCU 32/26 Q1010 A2983 NOSIG RMK TCU NW

MSLP Flight Activity (Flightaware)

Listeners: 0 out of 1312 total

Comalapa Ground: 121.700
Comalapa Tower: 118.000
Compalapa Approach: 119.900

MSLP Gnd/Twr/App/Center
San Salvador, El Salvador

Feed Status: DOWN
Offline since: 2020-08-05 17:41:23 UTC

MSLP 051850Z 18004KT 100V250 9999 SCT023 FEW033TCU 32/26 Q1010 A2983 NOSIG RMK TCU NW

Avianca Ops: 123.500
CCA: 119.300
CENAMER: 124.100
Comalapa Authorizations: 121.250
Comalapa Departure: 123.900
Comalapa Ground: 121.700
Comalapa Tower: 118.000
Compalapa Approach: 119.900
Ilopango Tower: 118.300
TACA Ops: 130.500

MSSS Tower
San Salvador, El Salvador

Feed Status: DOWN
Offline since: 2020-08-05 15:29:39 UTC

MSSS 051650Z 36003KT 9999 FEW013 29/22 Q1016 A3001

Ilopango Tower: 118.300